Main page
METAR-TAF:

METAR-TAF

Airports :

Rajmata Vijaya Raje Scindia Airport

Gwalior, India

latitude: 26-17-36N, longitude: 78-13-40E, elevation: 188 m

METAR: missing

Time: 13:43 (08:13 UTC)

Forecast

The report was made 4 hours and 43 minutes ago, at 03:30 UTC
Forecast valid from 30 at 06 UTC to 30 at 18 UTC
Wind 8 kt from the West
Visibility: 6000 m
Scattered clouds at a height of 2000 ft
Broken clouds at a height of 8000 ft
light rain
Temporary
from 30 at 10 UTC to 30 at 12 UTC
Wind 10 kt from the West/Southwest with gusts up to 20 kt
Visibility: 3000 m
Scattered clouds at a height of 1500 ft
Overcast at a height of 8000 ft

TAF: VIGR 300330Z 3006/3018 27008KT 6000 -RA SCT020 BKN080 TEMPO 3010/3012 25010G20KT 3000 RA/TSRA SCT015 FEW030TCU/CB OVC080

Weather observations and forecasts of more than 4000 airports (METAR and TAF reports).

The available stations are represented by yellow and red dots on the map.

Hover mouse over dot to see the name of the station.

Then click to see weather observations and forecasts.

To change the map : click on the green buttons with a black cross to zoom in, on the green button with a dash to zoom out, or on the green arrows for adjacent maps.


METAR-TAF: